sensor_id;sensor_type;location;lat;lon;timestamp;temperature;humidity
3330;DHT22;1677;49.576;10.990;2023-02-28T00:00:13;-1.10;99.90
3330;DHT22;1677;49.576;10.990;2023-02-28T00:02:40;-1.10;99.90
3330;DHT22;1677;49.576;10.990;2023-02-28T00:05:07;-1.00;99.90
3330;DHT22;1677;49.576;10.990;2023-02-28T00:07:35;-1.10;99.90
3330;DHT22;1677;49.576;10.990;2023-02-28T00:10:01;-1.20;99.90
3330;DHT22;1677;49.576;10.990;2023-02-28T00:12:27;-1.20;99.90
3330;DHT22;1677;49.576;10.990;2023-02-28T00:14:52;-1.30;99.90
3330;DHT22;1677;49.576;10.990;2023-02-28T00:17:18;-1.20;99.90
3330;DHT22;1677;49.576;10.990;2023-02-28T00:19:49;-1.10;99.90
3330;DHT22;1677;49.576;10.990;2023-02-28T00:22:17;-1.10;99.90
3330;DHT22;1677;49.576;10.990;2023-02-28T00:24:43;-1.20;99.90
3330;DHT22;1677;49.576;10.990;2023-02-28T00:27:09;-1.10;99.90
3330;DHT22;1677;49.576;10.990;2023-02-28T00:29:34;-1.00;99.90
3330;DHT22;1677;49.576;10.990;2023-02-28T00:32:00;-1.10;99.90
3330;DHT22;1677;49.576;10.990;2023-02-28T00:34:26;-1.00;99.90
3330;DHT22;1677;49.576;10.990;2023-02-28T00:36:51;-1.00;99.90
3330;DHT22;1677;49.576;10.990;2023-02-28T00:39:17;-1.10;99.90
3330;DHT22;1677;49.576;10.990;2023-02-28T00:41:43;-1.00;99.90
3330;DHT22;1677;49.576;10.990;2023-02-28T00:44:08;-0.80;99.90
3330;DHT22;1677;49.576;10.990;2023-02-28T00:46:34;-1.10;99.90
3330;DHT22;1677;49.576;10.990;2023-02-28T00:49:00;-1.10;99.90
3330;DHT22;1677;49.576;10.990;2023-02-28T00:51:26;-1.10;99.90
3330;DHT22;1677;49.576;10.990;2023-02-28T00:53:51;-1.00;99.90
3330;DHT22;1677;49.576;10.990;2023-02-28T00:56:17;-1.00;99.90
3330;DHT22;1677;49.576;10.990;2023-02-28T00:58:42;-0.90;99.90
3330;DHT22;1677;49.576;10.990;2023-02-28T01:01:08;-1.00;99.90
3330;DHT22;1677;49.576;10.990;2023-02-28T01:03:33;-1.00;99.90
3330;DHT22;1677;49.576;10.990;2023-02-28T01:05:59;-1.00;99.90
3330;DHT22;1677;49.576;10.990;2023-02-28T01:08:25;-1.10;99.90
3330;DHT22;1677;49.576;10.990;2023-02-28T01:10:51;-1.10;99.90
3330;DHT22;1677;49.576;10.990;2023-02-28T01:13:17;-1.20;99.90
3330;DHT22;1677;49.576;10.990;2023-02-28T01:15:50;-1.30;99.90
3330;DHT22;1677;49.576;10.990;2023-02-28T01:18:17;-1.20;99.90
3330;DHT22;1677;49.576;10.990;2023-02-28T01:20:42;-1.20;99.90
3330;DHT22;1677;49.576;10.990;2023-02-28T01:23:08;-1.20;99.90
3330;DHT22;1677;49.576;10.990;2023-02-28T01:25:35;-1.20;99.90
3330;DHT22;1677;49.576;10.990;2023-02-28T01:28:01;-1.20;99.90
3330;DHT22;1677;49.576;10.990;2023-02-28T01:30:27;-1.20;99.90
3330;DHT22;1677;49.576;10.990;2023-02-28T01:32:52;-1.20;99.90
3330;DHT22;1677;49.576;10.990;2023-02-28T01:35:19;-1.00;99.90
3330;DHT22;1677;49.576;10.990;2023-02-28T01:37:45;-1.10;99.90
3330;DHT22;1677;49.576;10.990;2023-02-28T01:40:11;-1.30;99.90
3330;DHT22;1677;49.576;10.990;2023-02-28T01:42:37;-1.40;99.90
3330;DHT22;1677;49.576;10.990;2023-02-28T01:45:24;-1.40;99.90
3330;DHT22;1677;49.576;10.990;2023-02-28T01:47:54;-1.30;99.90
3330;DHT22;1677;49.576;10.990;2023-02-28T01:50:23;-1.40;99.90
3330;DHT22;1677;49.576;10.990;2023-02-28T01:52:51;-1.50;99.90
3330;DHT22;1677;49.576;10.990;2023-02-28T01:55:19;-1.50;99.90
3330;DHT22;1677;49.576;10.990;2023-02-28T01:57:56;-1.30;99.90
3330;DHT22;1677;49.576;10.990;2023-02-28T02:00:25;-1.40;99.90
3330;DHT22;1677;49.576;10.990;2023-02-28T02:02:55;-1.40;99.90
3330;DHT22;1677;49.576;10.990;2023-02-28T02:05:25;-1.30;99.90
3330;DHT22;1677;49.576;10.990;2023-02-28T02:07:54;-1.30;99.90
3330;DHT22;1677;49.576;10.990;2023-02-28T02:10:27;-1.20;99.90
3330;DHT22;1677;49.576;10.990;2023-02-28T02:18:42;-1.50;99.90
3330;DHT22;1677;49.576;10.990;2023-02-28T02:27:01;-1.30;99.90
3330;DHT22;1677;49.576;10.990;2023-02-28T02:32:41;-1.30;99.90
3330;DHT22;1677;49.576;10.990;2023-02-28T02:35:29;-1.60;99.90
3330;DHT22;1677;49.576;10.990;2023-02-28T02:40:42;-1.40;99.90
3330;DHT22;1677;49.576;10.990;2023-02-28T02:43:28;-1.50;99.90
3330;DHT22;1677;49.576;10.990;2023-02-28T02:46:02;-1.30;99.90
3330;DHT22;1677;49.576;10.990;2023-02-28T02:48:32;-1.30;99.90
3330;DHT22;1677;49.576;10.990;2023-02-28T02:51:02;-1.60;99.90
3330;DHT22;1677;49.576;10.990;2023-02-28T02:53:40;-1.60;99.90
3330;DHT22;1677;49.576;10.990;2023-02-28T02:56:07;-1.50;99.90
3330;DHT22;1677;49.576;10.990;2023-02-28T02:58:37;-1.30;99.90
3330;DHT22;1677;49.576;10.990;2023-02-28T03:01:09;-1.30;99.90
3330;DHT22;1677;49.576;10.990;2023-02-28T03:03:35;-1.40;99.90
3330;DHT22;1677;49.576;10.990;2023-02-28T03:06:02;-1.60;99.90
3330;DHT22;1677;49.576;10.990;2023-02-28T03:08:30;-1.40;99.90
3330;DHT22;1677;49.576;10.990;2023-02-28T03:11:04;-1.40;99.90
3330;DHT22;1677;49.576;10.990;2023-02-28T03:14:01;-1.50;99.90
3330;DHT22;1677;49.576;10.990;2023-02-28T03:16:42;-1.70;99.90
3330;DHT22;1677;49.576;10.990;2023-02-28T03:22:22;-1.60;99.90
3330;DHT22;1677;49.576;10.990;2023-02-28T03:24:58;-1.60;99.90
3330;DHT22;1677;49.576;10.990;2023-02-28T03:27:29;-1.60;99.90
3330;DHT22;1677;49.576;10.990;2023-02-28T03:30:15;-1.50;99.90
3330;DHT22;1677;49.576;10.990;2023-02-28T03:33:00;-1.50;99.90
3330;DHT22;1677;49.576;10.990;2023-02-28T03:35:34;-1.40;99.90
3330;DHT22;1677;49.576;10.990;2023-02-28T03:38:10;-1.70;99.90
3330;DHT22;1677;49.576;10.990;2023-02-28T03:40:41;-1.60;99.90
3330;DHT22;1677;49.576;10.990;2023-02-28T03:43:12;-1.70;99.90
3330;DHT22;1677;49.576;10.990;2023-02-28T03:45:41;-1.60;99.90
3330;DHT22;1677;49.576;10.990;2023-02-28T03:48:23;-1.70;99.90
3330;DHT22;1677;49.576;10.990;2023-02-28T03:50:54;-1.70;99.90
3330;DHT22;1677;49.576;10.990;2023-02-28T03:53:34;-1.70;99.90
3330;DHT22;1677;49.576;10.990;2023-02-28T03:56:22;-1.90;99.90
3330;DHT22;1677;49.576;10.990;2023-02-28T03:59:01;-1.80;99.90
3330;DHT22;1677;49.576;10.990;2023-02-28T04:01:42;-1.80;99.90
3330;DHT22;1677;49.576;10.990;2023-02-28T04:04:10;-1.70;99.90
3330;DHT22;1677;49.576;10.990;2023-02-28T04:06:36;-1.70;99.90
3330;DHT22;1677;49.576;10.990;2023-02-28T04:09:03;-1.60;99.90
3330;DHT22;1677;49.576;10.990;2023-02-28T04:11:38;-1.50;99.90
3330;DHT22;1677;49.576;10.990;2023-02-28T04:14:05;-1.40;99.90
3330;DHT22;1677;49.576;10.990;2023-02-28T04:16:32;-1.50;99.90
3330;DHT22;1677;49.576;10.990;2023-02-28T04:18:58;-1.60;99.90
3330;DHT22;1677;49.576;10.990;2023-02-28T04:21:29;-1.60;99.90
3330;DHT22;1677;49.576;10.990;2023-02-28T04:23:55;-1.50;99.90
3330;DHT22;1677;49.576;10.990;2023-02-28T04:26:21;-1.40;99.90
3330;DHT22;1677;49.576;10.990;2023-02-28T04:28:46;-1.70;99.90
3330;DHT22;1677;49.576;10.990;2023-02-28T04:31:12;-1.60;99.90
3330;DHT22;1677;49.576;10.990;2023-02-28T04:33:37;-1.60;99.90
3330;DHT22;1677;49.576;10.990;2023-02-28T04:36:06;-1.60;99.90
3330;DHT22;1677;49.576;10.990;2023-02-28T04:38:35;-1.60;99.90
3330;DHT22;1677;49.576;10.990;2023-02-28T04:41:01;-1.60;99.90
3330;DHT22;1677;49.576;10.990;2023-02-28T04:43:27;-1.60;99.90
3330;DHT22;1677;49.576;10.990;2023-02-28T04:45:54;-1.40;99.90
3330;DHT22;1677;49.576;10.990;2023-02-28T04:48:23;-1.40;99.90
3330;DHT22;1677;49.576;10.990;2023-02-28T04:50:48;-1.40;99.90
3330;DHT22;1677;49.576;10.990;2023-02-28T04:53:14;-1.50;99.90
3330;DHT22;1677;49.576;10.990;2023-02-28T04:55:39;-1.60;99.90
3330;DHT22;1677;49.576;10.990;2023-02-28T04:58:05;-1.50;99.90
3330;DHT22;1677;49.576;10.990;2023-02-28T05:00:30;-1.40;99.90
3330;DHT22;1677;49.576;10.990;2023-02-28T05:02:56;-1.40;99.90
3330;DHT22;1677;49.576;10.990;2023-02-28T05:05:21;-1.30;99.90
3330;DHT22;1677;49.576;10.990;2023-02-28T05:07:48;-1.20;99.90
3330;DHT22;1677;49.576;10.990;2023-02-28T05:10:16;-1.10;99.90
3330;DHT22;1677;49.576;10.990;2023-02-28T05:12:42;-1.30;99.90
3330;DHT22;1677;49.576;10.990;2023-02-28T05:15:12;-1.40;99.90
3330;DHT22;1677;49.576;10.990;2023-02-28T05:17:38;-1.30;99.90
3330;DHT22;1677;49.576;10.990;2023-02-28T05:20:04;-1.10;99.90
3330;DHT22;1677;49.576;10.990;2023-02-28T05:22:30;-1.10;99.90
3330;DHT22;1677;49.576;10.990;2023-02-28T05:24:56;-1.20;99.90
3330;DHT22;1677;49.576;10.990;2023-02-28T05:27:21;-1.30;99.90
3330;DHT22;1677;49.576;10.990;2023-02-28T05:29:47;-1.50;99.90
3330;DHT22;1677;49.576;10.990;2023-02-28T05:32:13;-1.30;99.90
3330;DHT22;1677;49.576;10.990;2023-02-28T05:34:40;-1.00;99.90
3330;DHT22;1677;49.576;10.990;2023-02-28T05:37:06;-1.40;99.90
3330;DHT22;1677;49.576;10.990;2023-02-28T05:39:36;-1.40;99.90
3330;DHT22;1677;49.576;10.990;2023-02-28T05:42:01;-1.40;99.90
3330;DHT22;1677;49.576;10.990;2023-02-28T05:44:27;-1.50;99.90
3330;DHT22;1677;49.576;10.990;2023-02-28T05:46:53;-1.40;99.90
3330;DHT22;1677;49.576;10.990;2023-02-28T05:49:18;-1.30;99.90
3330;DHT22;1677;49.576;10.990;2023-02-28T05:51:44;-1.30;99.90
3330;DHT22;1677;49.576;10.990;2023-02-28T05:54:09;-1.40;99.90
3330;DHT22;1677;49.576;10.990;2023-02-28T05:56:35;-1.50;99.90
3330;DHT22;1677;49.576;10.990;2023-02-28T05:59:03;-1.60;99.90
3330;DHT22;1677;49.576;10.990;2023-02-28T06:01:34;-1.60;99.90
3330;DHT22;1677;49.576;10.990;2023-02-28T06:04:01;-1.60;99.90
3330;DHT22;1677;49.576;10.990;2023-02-28T06:06:27;-1.40;99.90
3330;DHT22;1677;49.576;10.990;2023-02-28T06:08:53;-1.20;99.90
3330;DHT22;1677;49.576;10.990;2023-02-28T06:11:19;-1.30;99.90
3330;DHT22;1677;49.576;10.990;2023-02-28T06:13:45;-1.40;99.90
3330;DHT22;1677;49.576;10.990;2023-02-28T06:16:11;-1.50;99.90
3330;DHT22;1677;49.576;10.990;2023-02-28T06:18:38;-1.30;99.90
3330;DHT22;1677;49.576;10.990;2023-02-28T06:21:03;-1.40;99.90
3330;DHT22;1677;49.576;10.990;2023-02-28T06:23:29;-1.30;99.90
3330;DHT22;1677;49.576;10.990;2023-02-28T06:25:55;-1.10;99.90
3330;DHT22;1677;49.576;10.990;2023-02-28T06:28:24;-1.10;99.90
3330;DHT22;1677;49.576;10.990;2023-02-28T06:30:50;-1.10;99.90
3330;DHT22;1677;49.576;10.990;2023-02-28T06:33:16;-1.10;99.90
3330;DHT22;1677;49.576;10.990;2023-02-28T06:35:44;-1.10;99.90
3330;DHT22;1677;49.576;10.990;2023-02-28T06:38:11;-1.20;99.90
3330;DHT22;1677;49.576;10.990;2023-02-28T06:40:37;-1.00;99.90
3330;DHT22;1677;49.576;10.990;2023-02-28T06:43:02;-1.00;99.90
3330;DHT22;1677;49.576;10.990;2023-02-28T06:45:28;-1.00;99.90
3330;DHT22;1677;49.576;10.990;2023-02-28T06:47:54;-1.00;99.90
3330;DHT22;1677;49.576;10.990;2023-02-28T06:50:20;-1.00;99.90
3330;DHT22;1677;49.576;10.990;2023-02-28T06:52:46;-1.00;99.90
3330;DHT22;1677;49.576;10.990;2023-02-28T06:55:12;-0.90;99.90
3330;DHT22;1677;49.576;10.990;2023-02-28T06:57:38;-0.90;99.90
3330;DHT22;1677;49.576;10.990;2023-02-28T07:00:07;-0.70;99.90
3330;DHT22;1677;49.576;10.990;2023-02-28T07:02:34;-0.70;99.90
3330;DHT22;1677;49.576;10.990;2023-02-28T07:05:00;-0.80;99.90
3330;DHT22;1677;49.576;10.990;2023-02-28T07:07:25;-0.90;99.90
3330;DHT22;1677;49.576;10.990;2023-02-28T07:09:51;-0.70;99.90
3330;DHT22;1677;49.576;10.990;2023-02-28T07:12:16;-0.50;99.90
3330;DHT22;1677;49.576;10.990;2023-02-28T07:14:42;-0.30;99.90
3330;DHT22;1677;49.576;10.990;2023-02-28T07:17:09;-0.20;99.90
3330;DHT22;1677;49.576;10.990;2023-02-28T07:19:36;-0.10;99.90
3330;DHT22;1677;49.576;10.990;2023-02-28T07:22:02;0.00;99.90
3330;DHT22;1677;49.576;10.990;2023-02-28T07:24:28;-0.10;99.90
3330;DHT22;1677;49.576;10.990;2023-02-28T07:26:55;0.10;99.90
3330;DHT22;1677;49.576;10.990;2023-02-28T07:29:21;0.70;99.90
3330;DHT22;1677;49.576;10.990;2023-02-28T07:31:46;1.30;99.90
3330;DHT22;1677;49.576;10.990;2023-02-28T07:34:13;2.00;99.90
3330;DHT22;1677;49.576;10.990;2023-02-28T07:36:39;2.80;99.90
3330;DHT22;1677;49.576;10.990;2023-02-28T07:39:05;3.50;99.90
3330;DHT22;1677;49.576;10.990;2023-02-28T07:41:30;4.10;99.90
3330;DHT22;1677;49.576;10.990;2023-02-28T07:43:59;4.60;99.90
3330;DHT22;1677;49.576;10.990;2023-02-28T07:46:25;4.60;98.50
3330;DHT22;1677;49.576;10.990;2023-02-28T07:48:51;5.20;98.50
3330;DHT22;1677;49.576;10.990;2023-02-28T07:51:18;5.60;96.50
3330;DHT22;1677;49.576;10.990;2023-02-28T07:53:44;5.90;94.90
3330;DHT22;1677;49.576;10.990;2023-02-28T07:56:10;6.50;95.10
3330;DHT22;1677;49.576;10.990;2023-02-28T07:58:36;6.80;93.40
3330;DHT22;1677;49.576;10.990;2023-02-28T08:01:09;7.40;92.10
3330;DHT22;1677;49.576;10.990;2023-02-28T08:03:35;7.60;90.40
3330;DHT22;1677;49.576;10.990;2023-02-28T08:06:02;8.20;84.80
3330;DHT22;1677;49.576;10.990;2023-02-28T08:08:29;8.40;84.80
3330;DHT22;1677;49.576;10.990;2023-02-28T08:10:58;9.50;79.30
3330;DHT22;1677;49.576;10.990;2023-02-28T08:13:25;10.00;71.90
3330;DHT22;1677;49.576;10.990;2023-02-28T08:15:50;9.80;70.30
3330;DHT22;1677;49.576;10.990;2023-02-28T08:18:16;9.90;70.90
3330;DHT22;1677;49.576;10.990;2023-02-28T08:20:41;10.80;66.50
3330;DHT22;1677;49.576;10.990;2023-02-28T08:23:07;10.70;61.40
3330;DHT22;1677;49.576;10.990;2023-02-28T08:25:32;10.80;61.40
3330;DHT22;1677;49.576;10.990;2023-02-28T08:27:58;9.70;64.50
3330;DHT22;1677;49.576;10.990;2023-02-28T08:30:23;10.50;61.60
3330;DHT22;1677;49.576;10.990;2023-02-28T08:32:49;10.80;59.10
3330;DHT22;1677;49.576;10.990;2023-02-28T08:35:14;10.30;57.40
3330;DHT22;1677;49.576;10.990;2023-02-28T08:37:40;9.70;59.50
3330;DHT22;1677;49.576;10.990;2023-02-28T08:40:06;10.40;58.30
3330;DHT22;1677;49.576;10.990;2023-02-28T08:42:32;10.00;54.90
3330;DHT22;1677;49.576;10.990;2023-02-28T08:44:58;11.40;55.90
3330;DHT22;1677;49.576;10.990;2023-02-28T08:47:23;10.80;53.70
3330;DHT22;1677;49.576;10.990;2023-02-28T08:49:49;10.00;53.80
3330;DHT22;1677;49.576;10.990;2023-02-28T08:52:15;10.80;54.90
3330;DHT22;1677;49.576;10.990;2023-02-28T08:54:40;10.10;56.10
3330;DHT22;1677;49.576;10.990;2023-02-28T08:57:06;9.40;56.10
3330;DHT22;1677;49.576;10.990;2023-02-28T08:59:32;8.50;59.00
3330;DHT22;1677;49.576;10.990;2023-02-28T09:01:58;8.40;59.40
3330;DHT22;1677;49.576;10.990;2023-02-28T09:04:23;8.50;61.10
3330;DHT22;1677;49.576;10.990;2023-02-28T09:06:49;7.50;59.30
3330;DHT22;1677;49.576;10.990;2023-02-28T09:09:15;9.00;60.30
3330;DHT22;1677;49.576;10.990;2023-02-28T09:11:41;9.90;57.20
3330;DHT22;1677;49.576;10.990;2023-02-28T09:14:06;10.70;56.20
3330;DHT22;1677;49.576;10.990;2023-02-28T09:16:34;10.60;54.70
3330;DHT22;1677;49.576;10.990;2023-02-28T09:19:00;10.60;53.90
3330;DHT22;1677;49.576;10.990;2023-02-28T09:21:26;10.90;55.10
3330;DHT22;1677;49.576;10.990;2023-02-28T09:23:52;10.80;50.40
3330;DHT22;1677;49.576;10.990;2023-02-28T09:26:26;9.60;52.40
3330;DHT22;1677;49.576;10.990;2023-02-28T09:28:52;9.80;52.90
3330;DHT22;1677;49.576;10.990;2023-02-28T09:31:23;10.00;52.70
3330;DHT22;1677;49.576;10.990;2023-02-28T09:33:52;11.20;51.00
3330;DHT22;1677;49.576;10.990;2023-02-28T09:36:18;12.90;49.40
3330;DHT22;1677;49.576;10.990;2023-02-28T09:38:44;12.60;46.30
3330;DHT22;1677;49.576;10.990;2023-02-28T09:41:16;13.30;45.70
3330;DHT22;1677;49.576;10.990;2023-02-28T09:44:00;13.40;44.50
3330;DHT22;1677;49.576;10.990;2023-02-28T09:46:38;13.50;43.40
3330;DHT22;1677;49.576;10.990;2023-02-28T09:49:12;12.10;43.60
3330;DHT22;1677;49.576;10.990;2023-02-28T09:54:16;12.90;43.80
3330;DHT22;1677;49.576;10.990;2023-02-28T09:56:47;13.80;43.40
3330;DHT22;1677;49.576;10.990;2023-02-28T10:04:59;13.40;39.60
3330;DHT22;1677;49.576;10.990;2023-02-28T10:10:15;11.10;40.00
3330;DHT22;1677;49.576;10.990;2023-02-28T10:12:44;11.70;43.10
3330;DHT22;1677;49.576;10.990;2023-02-28T10:15:15;12.80;40.10
3330;DHT22;1677;49.576;10.990;2023-02-28T10:17:45;14.80;39.40
3330;DHT22;1677;49.576;10.990;2023-02-28T10:20:19;16.40;35.40
3330;DHT22;1677;49.576;10.990;2023-02-28T10:23:01;15.30;33.70
3330;DHT22;1677;49.576;10.990;2023-02-28T10:25:34;15.90;36.90
3330;DHT22;1677;49.576;10.990;2023-02-28T10:28:12;14.00;32.30
3330;DHT22;1677;49.576;10.990;2023-02-28T10:30:41;14.80;35.50
3330;DHT22;1677;49.576;10.990;2023-02-28T10:33:33;14.90;32.80
3330;DHT22;1677;49.576;10.990;2023-02-28T10:35:58;15.70;35.80
3330;DHT22;1677;49.576;10.990;2023-02-28T10:38:32;16.00;31.40
3330;DHT22;1677;49.576;10.990;2023-02-28T10:41:10;16.70;31.50
3330;DHT22;1677;49.576;10.990;2023-02-28T10:43:38;16.20;29.40
3330;DHT22;1677;49.576;10.990;2023-02-28T10:48:57;15.40;29.50
3330;DHT22;1677;49.576;10.990;2023-02-28T10:51:24;14.10;30.60
3330;DHT22;1677;49.576;10.990;2023-02-28T10:53:52;15.30;32.10
3330;DHT22;1677;49.576;10.990;2023-02-28T10:56:20;16.30;30.30
3330;DHT22;1677;49.576;10.990;2023-02-28T10:58:57;15.60;30.80
3330;DHT22;1677;49.576;10.990;2023-02-28T11:01:42;16.00;30.50
3330;DHT22;1677;49.576;10.990;2023-02-28T11:06:45;16.90;29.30
3330;DHT22;1677;49.576;10.990;2023-02-28T11:11:57;14.90;30.60
3330;DHT22;1677;49.576;10.990;2023-02-28T11:14:28;14.70;31.00
3330;DHT22;1677;49.576;10.990;2023-02-28T11:17:03;15.80;29.90
3330;DHT22;1677;49.576;10.990;2023-02-28T11:19:43;15.60;31.80
3330;DHT22;1677;49.576;10.990;2023-02-28T11:22:10;14.30;28.50
3330;DHT22;1677;49.576;10.990;2023-02-28T11:24:49;14.40;31.10
3330;DHT22;1677;49.576;10.990;2023-02-28T11:29:58;14.10;29.50
3330;DHT22;1677;49.576;10.990;2023-02-28T11:32:28;14.70;30.30
3330;DHT22;1677;49.576;10.990;2023-02-28T11:37:35;14.10;31.60
3330;DHT22;1677;49.576;10.990;2023-02-28T11:40:02;14.20;32.40
3330;DHT22;1677;49.576;10.990;2023-02-28T11:48:25;17.00;28.40
3330;DHT22;1677;49.576;10.990;2023-02-28T11:51:21;15.40;28.00
3330;DHT22;1677;49.576;10.990;2023-02-28T11:54:17;14.40;31.10
3330;DHT22;1677;49.576;10.990;2023-02-28T11:56:55;15.50;32.80
3330;DHT22;1677;49.576;10.990;2023-02-28T12:02:23;14.70;30.50
3330;DHT22;1677;49.576;10.990;2023-02-28T12:04:54;13.80;32.20
3330;DHT22;1677;49.576;10.990;2023-02-28T12:07:36;14.40;32.20
3330;DHT22;1677;49.576;10.990;2023-02-28T12:10:19;13.90;33.40
3330;DHT22;1677;49.576;10.990;2023-02-28T12:13:07;13.60;33.00
3330;DHT22;1677;49.576;10.990;2023-02-28T12:26:41;10.70;37.50
3330;DHT22;1677;49.576;10.990;2023-02-28T12:31:52;11.30;38.90
3330;DHT22;1677;49.576;10.990;2023-02-28T12:34:28;11.60;39.30
3330;DHT22;1677;49.576;10.990;2023-02-28T12:36:58;11.30;37.70
3330;DHT22;1677;49.576;10.990;2023-02-28T12:39:28;10.20;38.30
3330;DHT22;1677;49.576;10.990;2023-02-28T12:42:19;10.10;40.70
3330;DHT22;1677;49.576;10.990;2023-02-28T12:45:02;10.30;40.30
3330;DHT22;1677;49.576;10.990;2023-02-28T12:47:28;9.80;42.70
3330;DHT22;1677;49.576;10.990;2023-02-28T12:49:59;10.30;41.60
3330;DHT22;1677;49.576;10.990;2023-02-28T13:00:33;10.10;43.10
3330;DHT22;1677;49.576;10.990;2023-02-28T13:11:33;9.80;45.10
3330;DHT22;1677;49.576;10.990;2023-02-28T13:14:05;9.60;44.50
3330;DHT22;1677;49.576;10.990;2023-02-28T13:17:12;9.80;44.00
3330;DHT22;1677;49.576;10.990;2023-02-28T13:22:41;9.40;44.90
3330;DHT22;1677;49.576;10.990;2023-02-28T13:27:49;8.70;48.00
3330;DHT22;1677;49.576;10.990;2023-02-28T13:38:42;9.00;46.80
3330;DHT22;1677;49.576;10.990;2023-02-28T13:46:35;9.20;46.40
3330;DHT22;1677;49.576;10.990;2023-02-28T13:51:52;8.90;46.40
3330;DHT22;1677;49.576;10.990;2023-02-28T13:57:35;9.10;48.00
3330;DHT22;1677;49.576;10.990;2023-02-28T14:05:30;8.60;46.20
3330;DHT22;1677;49.576;10.990;2023-02-28T14:08:12;8.20;47.20
3330;DHT22;1677;49.576;10.990;2023-02-28T14:10:51;8.10;47.60
3330;DHT22;1677;49.576;10.990;2023-02-28T14:13:43;8.00;46.60
3330;DHT22;1677;49.576;10.990;2023-02-28T14:16:20;7.80;47.50
3330;DHT22;1677;49.576;10.990;2023-02-28T14:19:01;8.20;48.60
3330;DHT22;1677;49.576;10.990;2023-02-28T14:21:30;8.30;49.50
3330;DHT22;1677;49.576;10.990;2023-02-28T14:32:26;7.90;48.50
3330;DHT22;1677;49.576;10.990;2023-02-28T14:35:00;7.80;49.30
3330;DHT22;1677;49.576;10.990;2023-02-28T14:37:34;7.80;47.80
3330;DHT22;1677;49.576;10.990;2023-02-28T14:40:04;7.80;49.10
3330;DHT22;1677;49.576;10.990;2023-02-28T14:42:39;7.70;50.60
3330;DHT22;1677;49.576;10.990;2023-02-28T14:45:21;7.50;51.40
3330;DHT22;1677;49.576;10.990;2023-02-28T14:47:48;7.80;50.50
3330;DHT22;1677;49.576;10.990;2023-02-28T14:50:22;7.60;51.00
3330;DHT22;1677;49.576;10.990;2023-02-28T14:52:52;7.60;51.40
3330;DHT22;1677;49.576;10.990;2023-02-28T14:55:19;7.10;51.40
3330;DHT22;1677;49.576;10.990;2023-02-28T14:57:59;7.00;52.10
3330;DHT22;1677;49.576;10.990;2023-02-28T15:00:28;6.90;52.10
3330;DHT22;1677;49.576;10.990;2023-02-28T15:02:55;7.00;52.80
3330;DHT22;1677;49.576;10.990;2023-02-28T15:05:33;6.80;53.00
3330;DHT22;1677;49.576;10.990;2023-02-28T15:08:17;6.70;54.50
3330;DHT22;1677;49.576;10.990;2023-02-28T15:11:01;6.60;54.30
3330;DHT22;1677;49.576;10.990;2023-02-28T15:13:45;6.30;54.50
3330;DHT22;1677;49.576;10.990;2023-02-28T15:16:24;6.30;55.10
3330;DHT22;1677;49.576;10.990;2023-02-28T15:19:11;6.30;55.20
3330;DHT22;1677;49.576;10.990;2023-02-28T15:21:43;6.30;57.00
3330;DHT22;1677;49.576;10.990;2023-02-28T15:26:39;6.40;55.70
3330;DHT22;1677;49.576;10.990;2023-02-28T15:29:10;6.50;55.30
3330;DHT22;1677;49.576;10.990;2023-02-28T15:31:48;6.40;56.30
3330;DHT22;1677;49.576;10.990;2023-02-28T15:34:41;6.40;57.10
3330;DHT22;1677;49.576;10.990;2023-02-28T15:39:52;6.30;56.10
3330;DHT22;1677;49.576;10.990;2023-02-28T15:42:20;6.30;56.00
3330;DHT22;1677;49.576;10.990;2023-02-28T15:44:46;6.20;56.30
3330;DHT22;1677;49.576;10.990;2023-02-28T15:47:19;6.20;56.90
3330;DHT22;1677;49.576;10.990;2023-02-28T15:49:54;5.90;57.60
3330;DHT22;1677;49.576;10.990;2023-02-28T15:54:58;5.60;59.00
3330;DHT22;1677;49.576;10.990;2023-02-28T15:57:29;5.80;58.70
3330;DHT22;1677;49.576;10.990;2023-02-28T15:59:57;5.50;59.30
3330;DHT22;1677;49.576;10.990;2023-02-28T16:02:36;5.50;59.10
3330;DHT22;1677;49.576;10.990;2023-02-28T16:07:39;5.20;61.00
3330;DHT22;1677;49.576;10.990;2023-02-28T16:10:06;5.00;63.20
3330;DHT22;1677;49.576;10.990;2023-02-28T16:12:34;5.10;62.70
3330;DHT22;1677;49.576;10.990;2023-02-28T16:15:05;5.00;63.20
3330;DHT22;1677;49.576;10.990;2023-02-28T16:17:34;4.80;64.50
3330;DHT22;1677;49.576;10.990;2023-02-28T16:20:00;4.90;64.50
3330;DHT22;1677;49.576;10.990;2023-02-28T16:22:25;4.80;65.20
3330;DHT22;1677;49.576;10.990;2023-02-28T16:24:51;4.60;66.50
3330;DHT22;1677;49.576;10.990;2023-02-28T16:27:21;4.70;66.10
3330;DHT22;1677;49.576;10.990;2023-02-28T16:29:50;4.60;68.20
3330;DHT22;1677;49.576;10.990;2023-02-28T16:32:15;4.40;68.70
3330;DHT22;1677;49.576;10.990;2023-02-28T16:34:43;4.50;68.90
3330;DHT22;1677;49.576;10.990;2023-02-28T16:37:14;4.30;69.60
3330;DHT22;1677;49.576;10.990;2023-02-28T16:39:40;4.50;69.70
3330;DHT22;1677;49.576;10.990;2023-02-28T16:42:07;4.50;69.70
3330;DHT22;1677;49.576;10.990;2023-02-28T16:44:35;4.40;70.10
3330;DHT22;1677;49.576;10.990;2023-02-28T16:47:01;4.30;71.20
3330;DHT22;1677;49.576;10.990;2023-02-28T16:49:27;4.20;72.80
3330;DHT22;1677;49.576;10.990;2023-02-28T16:51:53;4.20;72.90
3330;DHT22;1677;49.576;10.990;2023-02-28T16:54:19;4.10;74.20
3330;DHT22;1677;49.576;10.990;2023-02-28T16:56:46;4.30;73.60
3330;DHT22;1677;49.576;10.990;2023-02-28T16:59:12;3.90;75.30
3330;DHT22;1677;49.576;10.990;2023-02-28T17:01:39;3.90;76.30
3330;DHT22;1677;49.576;10.990;2023-02-28T17:04:05;3.80;77.20
3330;DHT22;1677;49.576;10.990;2023-02-28T17:06:30;4.00;76.80
3330;DHT22;1677;49.576;10.990;2023-02-28T17:08:57;3.70;78.60
3330;DHT22;1677;49.576;10.990;2023-02-28T17:11:24;3.70;79.70
3330;DHT22;1677;49.576;10.990;2023-02-28T17:13:50;3.80;79.10
3330;DHT22;1677;49.576;10.990;2023-02-28T17:16:23;3.80;79.80
3330;DHT22;1677;49.576;10.990;2023-02-28T17:18:53;3.80;79.30
3330;DHT22;1677;49.576;10.990;2023-02-28T17:21:19;3.60;81.20
3330;DHT22;1677;49.576;10.990;2023-02-28T17:23:45;3.60;81.30
3330;DHT22;1677;49.576;10.990;2023-02-28T17:26:15;3.60;82.10
3330;DHT22;1677;49.576;10.990;2023-02-28T17:28:43;4.10;79.50
3330;DHT22;1677;49.576;10.990;2023-02-28T17:31:09;3.70;80.60
3330;DHT22;1677;49.576;10.990;2023-02-28T17:33:35;3.70;80.60
3330;DHT22;1677;49.576;10.990;2023-02-28T17:36:00;3.50;82.00
3330;DHT22;1677;49.576;10.990;2023-02-28T17:38:26;3.30;84.10
3330;DHT22;1677;49.576;10.990;2023-02-28T17:40:52;3.10;86.40
3330;DHT22;1677;49.576;10.990;2023-02-28T17:43:25;3.00;87.10
3330;DHT22;1677;49.576;10.990;2023-02-28T17:45:52;3.70;84.10
3330;DHT22;1677;49.576;10.990;2023-02-28T17:48:17;3.80;82.60
3330;DHT22;1677;49.576;10.990;2023-02-28T17:50:43;3.90;82.30
3330;DHT22;1677;49.576;10.990;2023-02-28T17:53:09;3.70;82.60
3330;DHT22;1677;49.576;10.990;2023-02-28T17:55:35;3.50;84.10
3330;DHT22;1677;49.576;10.990;2023-02-28T17:58:01;3.40;85.70
3330;DHT22;1677;49.576;10.990;2023-02-28T18:00:28;3.00;88.20
3330;DHT22;1677;49.576;10.990;2023-02-28T18:02:54;2.90;89.10
3330;DHT22;1677;49.576;10.990;2023-02-28T18:05:19;2.60;90.80
3330;DHT22;1677;49.576;10.990;2023-02-28T18:07:45;2.60;90.90
3330;DHT22;1677;49.576;10.990;2023-02-28T18:10:19;2.70;90.70
3330;DHT22;1677;49.576;10.990;2023-02-28T18:12:49;2.60;91.30
3330;DHT22;1677;49.576;10.990;2023-02-28T18:15:16;2.70;91.10
3330;DHT22;1677;49.576;10.990;2023-02-28T18:17:42;2.60;91.20
3330;DHT22;1677;49.576;10.990;2023-02-28T18:20:09;2.40;92.20